• Join FlightAware (Why Join?)
  • Login
  • US Flag 
05:35AM EST


 

Airport Tracker/Info


-or-


 

Live Flight TrackerFlight Track Log ✈ N424ST ✈ 25-Apr-2013 ✈ KMSL - KMLJ

Flight Track Log - Related Links

Times and Time Zones

All times are in EDT time to prevent confusion due to time zone crossing. See the N424ST flight status page for this flight to view local times or setup timezone preferences in your user account.

Time Position Orientation Groundspeed Altitude Reporting Facility
EDT Latitude Longitude Course Direction KTS MPH feet Rate Location/Type
05:21PM 34.7189 -87.5475 104° East 120 138 2,200  Level Memphis Center
05:22PM 34.7139 -87.5097 99° East 120 138 2,800 600 Climbing Memphis Center
05:23PM 34.7044 -87.4697 106° East 120 138 3,400 600 Climbing Memphis Center
05:24PM 34.6994 -87.4294 99° East 120 138 4,000 600 Climbing Memphis Center
05:25PM 34.6900 -87.3894 106° East 120 138 4,600 2,460 Climbing Memphis Center
05:26PM 34.6754 -87.4052 104° East  Level Estimated
05:26PM 34.6828 -87.3492 102° East 120 138 9,000  Level Memphis Center
05:27PM 34.6736 -87.3117 107° East 120 138 5,700 -1,440 Descending Memphis Center
05:28PM 34.6664 -87.2689 102° East 120 138 6,200 480 Climbing Memphis Center
05:29PM 34.6569 -87.2264 105° East 125 144 6,700 480 Climbing Memphis Center
05:30PM 34.6497 -87.1864 102° East 125 144 7,200 420 Climbing Memphis Center
05:31PM 34.6425 -87.1486 103° East 125 144 7,600 420 Climbing Memphis Center
05:32PM 34.6350 -87.1086 103° East 125 144 8,100 480 Climbing Memphis Center
05:33PM 34.6278 -87.0711 103° East 125 144 8,600 420 Climbing Memphis Center
05:34PM 34.6206 -87.0333 103° East 125 144 9,000 180 Climbing Memphis Center
05:35PM 34.6111 -86.9883 104° East 125 144 9,000  Level Memphis Center
05:37PM 34.5980 -86.9225 104° East  Level FlightAware Approximate
05:44PM 34.5474 -86.6712 105° East  Level FlightAware Approximate
05:45PM 34.5396 -86.6355 105° East  Level FlightAware Approximate
05:46PM 34.5319 -86.5998 105° East  Level FlightAware Approximate
05:47PM 34.5242 -86.5641 105° East  Level FlightAware Approximate
05:47PM 34.4897 -86.3903 105° East 162 186 9,000  Level Atlanta Center
05:48PM 34.5164 -86.5284 105° East  Level FlightAware Approximate
05:48PM 34.4803 -86.3394 103° East 157 181 9,000  Level Atlanta Center
05:49PM 34.5086 -86.4927 105° East  Level FlightAware Approximate
05:49PM 34.4708 -86.2889 103° East 157 181 9,000  Level Atlanta Center
05:50PM 34.5008 -86.4570 105° East  Level FlightAware Approximate
05:51PM 34.4930 -86.4214 105° East  Level FlightAware Approximate
05:51PM 34.4497 -86.1825 104° East 162 186 9,100  Level Atlanta Center
05:52PM 34.4361 -86.1317 108° East 162 186 9,100  Level Atlanta Center
05:53PM 34.4264 -86.0836 104° East 162 186 9,100  Level Atlanta Center
05:54PM 34.4167 -86.0331 103° East 162 186 9,100  Level Atlanta Center
05:55PM 34.4050 -85.9800 105° East 162 186 9,100  Level Atlanta Center
05:56PM 34.3975 -85.9294 100° East 162 186 9,100  Level Atlanta Center
05:57PM 34.3858 -85.8789 106° East 162 186 9,100  Level Atlanta Center
05:58PM 34.3761 -85.8283 103° East 157 181 9,100 -60 Level Atlanta Center
05:59PM 34.3642 -85.7778 106° East 157 181 9,000 -60 Descending Atlanta Center
06:00PM 34.3525 -85.7269 106° East 152 175 9,000  Level Atlanta Center
06:01PM 34.3447 -85.6767 101° East 152 175 9,000  Level Atlanta Center
06:02PM 34.3331 -85.6186 104° East 152 175 9,000  Level Atlanta Center
06:03PM 34.3192 -85.5681 108° East 152 175 9,000  Level Atlanta Center
06:04PM 34.3092 -85.5175 103° East 152 175 9,000 -60 Level Atlanta Center
06:05PM 34.2994 -85.4644 102° East 152 175 8,900 -420 Descending Atlanta Center
06:07PM 34.2778 -85.3611 104° East 152 175 7,900 -540 Descending Atlanta Center
06:08PM 34.2656 -85.3081 106° East 152 175 7,400 -480 Descending Atlanta Center
06:09PM 34.2517 -85.2578 108° East 152 175 7,000 -480 Descending Atlanta Center
06:10PM 34.2417 -85.2097 104° East 152 175 6,500 -600 Descending Atlanta Center
06:11PM 34.2317 -85.1569 103° East 152 175 5,900 -540 Descending Atlanta Center
06:12PM 34.2258 -85.1142 99° East 152 175 5,500 -480 Descending Atlanta Center
06:13PM 34.2117 -85.0661 110° East 145 167 5,000 -300 Descending Atlanta Center
06:14PM 34.2036 -85.0233 103° East 145 167 5,000  Level Atlanta Center
06:15PM 34.1936 -84.9756 104° East 145 167 5,000  Level Atlanta Center
06:16PM 34.1833 -84.9303 105° East 145 167 5,000  Level Atlanta Center
06:17PM 34.1733 -84.8850 105° East 145 167 5,000  Level Atlanta Center
06:18PM 34.1633 -84.8322 103° East 145 167 5,000  Level Atlanta Center
06:19PM 34.1511 -84.7867 108° East 145 167 5,000  Level Atlanta Center
06:20PM 34.1408 -84.7392 105° East 145 167 5,000  Level Atlanta Center
06:21PM 34.1306 -84.6939 105° East 150 173 5,000  Level Atlanta Center
06:22PM 34.1225 -84.6486 102° East 144 166 5,000  Level Atlanta Center
06:24PM 34.1000 -84.5500 105° East 147 169 5,000  Level Atlanta TRACON
06:25PM 34.0833 -84.5000 112° Southeast 147 169 5,000  Level Atlanta TRACON
06:26PM 34.0833 -84.4667 90° East 148 170 5,000  Level Atlanta TRACON
06:27PM 34.0667 -84.4167 112° Southeast 142 163 5,000  Level Atlanta TRACON
06:27PM 34.0667 -84.3833 90° East 141 162 5,000  Level Atlanta TRACON
06:28PM 34.0500 -84.3333 112° Southeast 143 165 5,000  Level Atlanta TRACON
06:30PM 34.0333 -84.2833 112° Southeast 138 159 5,000  Level Atlanta TRACON
06:30PM 34.0333 -84.2333 90° East 141 162 5,000  Level Atlanta TRACON
06:32PM 34.0167 -84.1833 112° Southeast 148 170 5,000  Level Atlanta TRACON
06:33PM 34.0000 -84.1333 112° Southeast 144 166 5,000  Level Atlanta TRACON
06:34PM 33.9833 -84.1000 121° Southeast 144 166 5,000  Level Atlanta TRACON
06:34PM 33.9667 -84.0667 121° Southeast 147 169 5,000  Level Atlanta TRACON
06:36PM 33.9333 -84.0333 140° Southeast 145 167 5,000  Level Atlanta TRACON
06:36PM 33.9167 -83.9833 112° Southeast 150 173 5,000  Level Atlanta TRACON
06:38PM 33.8833 -83.9500 140° Southeast 143 165 5,000  Level Atlanta TRACON
06:39PM 33.8667 -83.9167 121° Southeast 147 169 5,000  Level Atlanta TRACON
06:40PM 33.8333 -83.8833 140° Southeast 145 167 5,000  Level Atlanta TRACON
06:41PM 33.8000 -83.8500 140° Southeast 150 173 5,000  Level Atlanta TRACON
06:42PM 33.7667 -83.8167 140° Southeast 144 166 5,000  Level Atlanta TRACON
06:43PM 33.7333 -83.7833 140° Southeast 146 168 5,000  Level Atlanta TRACON
06:44PM 33.7000 -83.7500 140° Southeast 148 170 5,000  Level Atlanta TRACON
06:45PM 33.6667 -83.7167 140° Southeast 146 168 5,000  Level Atlanta TRACON
06:46PM 33.6333 -83.7000 157° South 149 171 5,000  Level Atlanta TRACON
06:47PM 33.6167 -83.6667 121° Southeast 151 174 5,000  Level Atlanta TRACON
06:48PM 33.5833 -83.6333 140° Southeast 146 168 5,000  Level Atlanta TRACON
06:49PM 33.5500 -83.6000 140° Southeast 145 167 5,000  Level Atlanta TRACON
06:50PM 33.5167 -83.5667 140° Southeast 146 168 5,000  Level Atlanta TRACON
06:51PM 33.4833 -83.5333 140° Southeast 147 169 5,000  Level Atlanta TRACON
06:52PM 33.4500 -83.5167 157° South 149 171 5,000  Level Atlanta TRACON
06:53PM 33.4167 -83.4833 140° Southeast 142 163 5,100 -180 Climbing Atlanta TRACON
06:54PM 33.3833 -83.4500 140° Southeast 150 173 4,700 -420 Descending Atlanta TRACON
06:55PM 33.3500 -83.4167 140° Southeast 142 163 4,300 -420 Descending Atlanta TRACON